MST,Max TemperatureF,Mean TemperatureF,Min TemperatureF,Max Dew PointF,MeanDew PointF,Min DewpointF,Max Humidity, Mean Humidity, Min Humidity, Max Sea Level PressureIn, Mean Sea Level PressureIn, Min Sea Level PressureIn, Max VisibilityMiles, Mean VisibilityMiles, Min VisibilityMiles, Max Wind SpeedMPH, Mean Wind SpeedMPH, Max Gust SpeedMPH,PrecipitationIn, CloudCover, Events, WindDirDegrees
2013-11-1,50,44,37,30,24,18,70,50,30,30.22,30.06,29.89,20,11,10,20,12,26,0.00,2,,282
2013-11-2,62,47,32,27,21,12,65,48,16,30.21,30.09,29.77,15,10,10,13,7,,0.00,0,,309
2013-11-3,66,52,37,28,17,3,70,32,8,29.85,29.70,29.58,20,11,10,17,6,25,0.00,3,Rain,358
2013-11-4,41,36,32,32,21,9,100,64,26,30.02,29.92,29.86,20,12,10,14,8,18,0.00,5,,120
2013-11-5,44,37,30,23,13,-2,69,47,14,30.14,30.01,29.90,20,12,10,24,9,36,0.00,3,,311
2013-11-6,51,42,32,14,7,-2,33,26,18,30.34,30.19,30.10,20,11,10,29,18,38,0.00,1,,272
2013-11-7,55,44,32,45,20,14,87,43,25,30.37,30.25,30.02,10,10,10,18,8,25,0.00,1,,296
2013-11-8,64,50,37,23,18,3,56,30,11,30.04,29.93,29.64,20,11,10,29,7,46,0.00,3,,245
2013-11-9,64,50,35,32,26,19,75,47,22,30.27,30.15,30.05,20,11,10,13,4,,0.00,1,,339
2013-11-10,66,50,35,45,26,19,75,51,17,30.26,30.23,30.18,20,11,10,12,2,,0.00,1,,300
2013-11-11,66,49,32,30,24,18,93,50,15,30.62,30.33,30.21,20,11,7,21,4,25,0.00,2,,72
2013-11-12,57,44,30,32,29,27,93,55,33,30.59,30.51,30.41,15,11,5,6,3,,0.00,0,Fog,34
2013-11-13,68,54,41,23,16,12,36,21,12,30.29,30.15,30.05,10,10,10,18,6,26,0.00,4,,268
2013-11-14,57,49,39,32,30,25,75,51,33,30.12,29.93,29.77,20,12,10,12,6,,0.00,2,,43
2013-11-15,64,50,35,32,23,12,81,49,13,29.76,29.63,29.49,20,11,10,21,5,30,0.00,1,,275
2013-11-16,59,48,37,30,19,10,70,37,17,29.55,29.45,29.33,10,10,10,33,13,44,0.00,2,Rain,264
2013-11-17,55,44,33,30,18,12,87,41,19,30.06,29.80,29.56,20,11,5,33,19,51,0.00,2,Rain-Snow,271
2013-11-18,64,47,30,54,17,10,68,40,12,30.14,30.07,30.03,20,10,10,23,10,30,0.00,1,,278
2013-11-19,62,48,35,28,19,12,48,32,21,30.02,29.86,29.74,20,11,10,30,8,40,0.00,3,,259
2013-11-20,59,44,30,39,26,21,86,46,23,30.03,29.85,29.78,20,12,2,25,14,33,0.00,4,Snow,299
2013-11-21,28,21,14,27,16,9,93,85,73,30.52,30.27,30.05,20,5,1,14,9,,0.00,8,Snow,35
2013-11-22,32,26,19,21,15,9,93,69,43,30.56,30.48,30.42,20,11,10,15,4,,0.00,5,,246
2013-11-23,33,28,24,23,20,3,86,73,37,30.57,30.47,30.28,15,10,2,7,2,,0.00,6,Snow,322
2013-11-24,39,31,23,28,23,18,93,75,45,30.26,30.08,29.95,16,10,10,13,4,18,0.00,4,,349
2013-11-25,41,36,32,27,22,16,80,57,36,30.29,30.17,30.02,20,10,10,13,8,20,0.00,5,,353
2013-11-26,48,39,30,45,22,16,93,58,27,30.38,30.30,30.23,20,12,10,8,3,,0.00,3,,304
2013-11-27,62,47,32,27,20,18,65,48,20,30.22,30.15,30.05,10,10,10,14,3,,0.00,1,,297
2013-11-28,46,40,35,27,24,21,70,58,43,30.21,30.16,30.12,10,10,10,9,5,,0.00,2,,323
2013-11-29,62,47,32,43,21,16,93,47,16,30.18,30.12,30.09,15,10,10,20,4,25,0.00,1,,263
2013-11-30,59,48,35,21,15,10,56,32,16,30.18,30.16,30.11,15,10,10,23,5,28,0.00,0,,284